Terminal Aerodrome Forecast
Issued by NWS

Current Version | Previous Version | Graphics & Text | Print | Product List | Glossary On
Versions: 1 2 3 4 5 6 7 8 9 10 11 12 13 14 15 16 17 18 19 20 21 22 23
000
FTUS41 KRLX 031500 AAA
TAFCKB
TAF AMD
KCKB 031506Z 0315/0412 15007KT P6SM -SHRA OVC060
     FM031800 18008KT P6SM -SHRA OVC030
     FM040100 21010G17KT P6SM -SHRA OVC015
     FM040600 23009KT 2SM RA BR OVC008
     FM040900 28006KT 1SM +RA BR OVC008=

USA.gov is the U.S. government's official web portal to all federal, state and local government web resources and services.